»·PEaware :: UAL739 KDEN-KPHX

UAL739 :: KDEN-KPHX

FLIGHT INFORMATION

Flight Status: Arrived
Operator:
United Airlines
More flights by this operator :: More flights under this callsign
Pilot: Brad Z. (13827)
Aircraft: BOEING 737-900
(B739)
More flights by this aircraft type
Origin: KDEN Denver Intl
United States
Destination: KPHX Phoenix Sky Harbor Intl
United States
More flights between these airports :: More routes between these airports
Route: +SOLAR3 DAAYE GUP EAGUL6
File this flight plan on PilotEdge
Remarks:
Altitude:
(Current/Filed)
320ft
Speed:
(Current/Filed)
541kts
Departed: 18-Sep-17 03:22 PM
Arrived: 18-Sep-17 04:44 PM
Distance/Time
Traveled:
523nm/1:22
Distance/Time
To Go:
Arrived

Flight Plot

Page will automatically refresh every two minutes.


Map Options




Map Legend


Flown Route
Filed Route
Departure Airport
Arrival Airport
Navaid (VOR, NDB)
Fix

Horizontal Profiles

Position Reports

Time Latitude Longitude Heading Altitude Ground
Speed
18-Sep-17 15:07 39.859436 -104.677899 180 5438ft 0kts
18-Sep-17 15:08 39.859436 -104.677899 180 5438ft 0kts
18-Sep-17 15:09 39.859436 -104.677899 180 5438ft 0kts
18-Sep-17 15:10 39.859436 -104.677899 180 5438ft 0kts
18-Sep-17 15:11 39.859436 -104.677899 180 5438ft 0kts
18-Sep-17 15:12 39.859436 -104.677899 180 5438ft 0kts
18-Sep-17 15:13 39.859436 -104.677899 180 5438ft 0kts
18-Sep-17 15:14 39.859436 -104.677899 180 5438ft 0kts
18-Sep-17 15:15 39.859436 -104.677899 180 5438ft 0kts
18-Sep-17 15:16 39.859457 -104.677899 180 5438ft 1kts
18-Sep-17 15:17 39.860038 -104.678095 126 5438ft 2kts
18-Sep-17 15:18 39.860099 -104.678390 90 5438ft 0kts
18-Sep-17 15:19 39.860099 -104.678390 90 5438ft 0kts
18-Sep-17 15:20 39.860099 -104.678390 90 5438ft 0kts
18-Sep-17 15:21 39.860087 -104.676041 90 5438ft 14kts
18-Sep-17 15:22 39.860044 -104.670704 90 5438ft 14kts
18-Sep-17 15:23 39.860549 -104.665761 119 5438ft 14kts
18-Sep-17 15:24 39.861093 -104.661831 81 5438ft 0kts
18-Sep-17 15:25 39.861113 -104.661628 83 5438ft 5kts
18-Sep-17 15:26 39.852684 -104.660181 181 5439ft 109kts
18-Sep-17 15:27 39.806102 -104.661141 184 6546ft 197kts
18-Sep-17 15:28 39.742147 -104.684966 195 8017ft 266kts
18-Sep-17 15:29 39.663622 -104.697063 181 9936ft 293kts
18-Sep-17 15:30 39.576558 -104.703027 184 11479ft 345kts
18-Sep-17 15:31 39.472902 -104.709948 184 13393ft 389kts
18-Sep-17 15:32 39.367343 -104.745680 205 15841ft 399kts
18-Sep-17 15:33 39.278141 -104.828245 232 18065ft 403kts
18-Sep-17 15:34 39.211099 -104.946443 235 20002ft 415kts
18-Sep-17 15:35 39.134622 -105.060990 218 21703ft 433kts
18-Sep-17 15:36 39.039343 -105.128425 209 23050ft 447kts
18-Sep-17 15:37 38.934558 -105.195309 209 24272ft 457kts
18-Sep-17 15:38 38.824729 -105.265841 209 25376ft 466kts
18-Sep-17 15:39 38.711927 -105.337700 209 26356ft 475kts
18-Sep-17 15:40 38.601279 -105.407935 209 27215ft 482kts
18-Sep-17 15:41 38.481256 -105.483771 209 28408ft 481kts
18-Sep-17 15:42 38.372113 -105.552507 209 29451ft 481kts
18-Sep-17 15:43 38.252323 -105.628184 209 30648ft 477kts
18-Sep-17 15:44 38.133919 -105.702407 209 31845ft 472kts
18-Sep-17 15:45 38.017781 -105.780219 218 32262ft 468kts
18-Sep-17 15:46 37.923323 -105.890535 228 32251ft 462kts
18-Sep-17 15:47 37.832969 -106.005707 228 32251ft 462kts
18-Sep-17 15:48 37.742153 -106.121129 228 32255ft 461kts
18-Sep-17 15:49 37.651735 -106.236024 228 32291ft 462kts
18-Sep-17 15:50 37.561143 -106.350394 227 32333ft 461kts
18-Sep-17 15:51 37.470380 -106.464519 227 32387ft 461kts
18-Sep-17 15:52 37.379312 -106.578598 227 32446ft 461kts
18-Sep-17 15:53 37.288342 -106.692078 227 32464ft 461kts
18-Sep-17 15:54 37.197065 -106.805566 227 32486ft 461kts
18-Sep-17 15:55 37.105851 -106.918549 227 32381ft 462kts
18-Sep-17 15:56 37.014489 -107.031318 226 32337ft 462kts
18-Sep-17 15:57 36.922570 -107.144357 226 32272ft 463kts
18-Sep-17 15:58 36.830780 -107.256846 226 32235ft 463kts
18-Sep-17 15:59 36.738439 -107.369592 226 32220ft 464kts
18-Sep-17 16:00 36.646236 -107.481785 226 32236ft 464kts
18-Sep-17 16:01 36.553681 -107.594012 226 32234ft 465kts
18-Sep-17 16:02 36.460552 -107.706494 226 32192ft 466kts
18-Sep-17 16:03 36.367443 -107.818597 225 32157ft 467kts
18-Sep-17 16:04 36.274123 -107.930570 225 32153ft 467kts
18-Sep-17 16:05 36.180266 -108.042780 225 32161ft 468kts
18-Sep-17 16:06 36.086608 -108.154367 225 32171ft 468kts
18-Sep-17 16:07 35.992895 -108.265627 225 32175ft 467kts
18-Sep-17 16:08 35.898797 -108.376957 225 32185ft 467kts
18-Sep-17 16:09 35.805057 -108.487491 225 32187ft 466kts
18-Sep-17 16:10 35.711367 -108.597596 225 32194ft 465kts
18-Sep-17 16:11 35.617553 -108.707739 225 32200ft 465kts
18-Sep-17 16:12 35.523926 -108.816846 225 32200ft 464kts
18-Sep-17 16:13 35.431982 -108.928135 228 32201ft 463kts
18-Sep-17 16:14 35.343953 -109.042924 227 32203ft 462kts
18-Sep-17 16:15 35.255556 -109.156985 227 32203ft 462kts
18-Sep-17 16:16 35.180852 -109.284419 238 32198ft 460kts
18-Sep-17 16:17 35.110616 -109.414899 237 32195ft 460kts
18-Sep-17 16:18 35.040262 -109.545029 237 32198ft 459kts
18-Sep-17 16:19 34.969896 -109.675705 237 32182ft 460kts
18-Sep-17 16:20 34.899412 -109.805759 237 32181ft 460kts
18-Sep-17 16:21 34.828735 -109.935612 237 32182ft 461kts
18-Sep-17 16:22 34.757521 -110.065879 237 32189ft 461kts
18-Sep-17 16:23 34.686459 -110.195428 237 32189ft 461kts
18-Sep-17 16:24 34.614965 -110.325279 237 32188ft 461kts
18-Sep-17 16:25 34.544052 -110.453658 236 31121ft 452kts
18-Sep-17 16:26 34.473485 -110.581410 236 28148ft 457kts
18-Sep-17 16:27 34.402914 -110.708096 236 25531ft 435kts
18-Sep-17 16:28 34.336353 -110.819143 228 24596ft 387kts
18-Sep-17 16:29 34.264061 -110.912400 227 22659ft 374kts
18-Sep-17 16:30 34.193934 -111.002664 227 20783ft 361kts
18-Sep-17 16:31 34.126464 -111.089426 227 19075ft 343kts
18-Sep-17 16:32 34.063129 -111.171024 227 17521ft 327kts
18-Sep-17 16:33 34.001753 -111.249701 227 15867ft 315kts
18-Sep-17 16:34 33.942604 -111.325231 227 14231ft 304kts
18-Sep-17 16:35 33.885289 -111.398071 225 12847ft 286kts
18-Sep-17 16:36 33.823053 -111.454065 216 11425ft 275kts
18-Sep-17 16:37 33.760533 -111.507659 215 10177ft 275kts
18-Sep-17 16:38 33.699115 -111.560354 214 8758ft 266kts
18-Sep-17 16:39 33.642947 -111.608398 214 8099ft 236kts
18-Sep-17 16:40 33.590019 -111.652730 214 7047ft 230kts
18-Sep-17 16:41 33.538013 -111.696454 215 5976ft 225kts
18-Sep-17 16:42 33.487254 -111.739260 215 4920ft 222kts
18-Sep-17 16:43 33.448476 -111.793823 240 4053ft 206kts
18-Sep-17 16:44 33.440663 -111.856277 267 3338ft 182kts
18-Sep-17 16:45 33.440742 -111.911487 268 2477ft 157kts
18-Sep-17 16:46 33.440975 -111.963914 271 1576ft 154kts
18-Sep-17 16:47 33.440781 -112.008820 267 1143ft 46kts
18-Sep-17 16:48 33.440279 -112.010963 225 1143ft 3kts
18-Sep-17 16:49 33.439617 -112.011440 176 1143ft 2kts
18-Sep-17 16:50 33.438996 -112.008206 91 1143ft 9kts
18-Sep-17 16:51 33.437394 -112.004662 182 1143ft 16kts
18-Sep-17 16:52 33.434239 -112.004634 178 1143ft 11kts
18-Sep-17 16:53 33.432819 -112.007329 269 1143ft 17kts
18-Sep-17 16:54 33.433102 -112.012486 299 1143ft 0kts
18-Sep-17 16:55 33.433441 -112.013138 306 1143ft 0kts
18-Sep-17 16:56 33.433441 -112.013138 306 1143ft 0kts

Navigation Log

Ident Type
1. KDEN Airport
2. GUP Navaid
3. SLIDR Fix
4. PAYSO Fix
5. EAGUL Fix
6. PICHR Fix
7. HOMRR Fix
8. QUENY Fix
9. HINEY Fix
10. BASBL Fix
11. KPHX Airport